Greybeard — WCZ9876 — position and weather

sailwx.info

Track history (hours):
 
Tides and Currents Weather Stations Pressure Air Temp Water Temp Dewpoint Dewpoint Depression Visibility Wind Speed Wind Dir Waves Ship Positions

Greybeard

More information available from US FCC via Universal Licensing System and Coast Guard Vessel Documentation Center.

Last reported at 2014-Jul-22 17:13 UTC. Time now 2014-Jul-26 09:12 UTC.
Position N 36°57' W 122°15'.

Length 10 m.

Type: Fishing. MMSI: 367458170.

Date/timePositionNaut miles runAvg speedWind from/ knotsBaromVisibWave heightAir tempDewpointWater temp
2014-Jul-22 17:13N 36°57' W 122°15'0 0.4
2014-Jul-22 16:27N 36°57' W 122°16'3 2.9
2014-Jul-22 15:33N 36°55' W 122°13'3 2.9
2014-Jul-22 14:30N 36°54' W 122°10'  
2014-Jul-17 12:33N 36°56' W 122°06'6 4.6
2014-Jul-17 11:14N 36°58' W 122°13'4 4.5
2014-Jul-17 10:19N 37°01' W 122°17'4 4.9
2014-Jul-17 09:32N 37°05' W 122°19'1 1.0
2014-Jul-17 08:27N 37°06' W 122°19'0 0.0
2014-Jul-17 07:33N 37°06' W 122°19'0 0.0
2014-Jul-17 06:27N 37°06' W 122°19'0 0.0
2014-Jul-17 05:27N 37°06' W 122°19'0 0.0
2014-Jul-17 04:27N 37°06' W 122°19'0 0.0
2014-Jul-17 03:33N 37°06' W 122°19'0 0.0
2014-Jul-17 02:15N 37°06' W 122°19'0 0.0
2014-Jul-17 00:21N 37°06' W 122°19'0 0.0
2014-Jul-16 18:21N 37°06' W 122°19'2 1.4
2014-Jul-16 17:15N 37°06' W 122°21'3 3.9
2014-Jul-16 16:28N 37°08' W 122°24'3 2.7
2014-Jul-16 15:28N 37°10' W 122°26'11 4.6
2014-Jul-16 13:06N 37°20' W 122°32'7 4.3
2014-Jul-16 11:33N 37°26' W 122°35'26 4.3
2014-Jul-16 05:25N 37°47' W 122°55'4 4.6
2014-Jul-16 04:32N 37°51' W 122°58'4 4.5
2014-Jul-16 03:33N 37°54' W 123°01'4 4.2
2014-Jul-16 02:33N 37°58' W 123°04'2 2.1
2014-Jul-16 01:33N 37°59' W 123°06'3 3.2
2014-Jul-16 00:33N 38°02' W 123°07'3 3.3
2014-Jul-15 23:32N 38°05' W 123°09'3 3.0
2014-Jul-15 22:29N 38°08' W 123°10'3 3.5
2014-Jul-15 21:33N 38°11' W 123°12'4 3.7
2014-Jul-15 20:33N 38°15' W 123°13'4 4.1
2014-Jul-15 19:33N 38°19' W 123°15'4 3.9
2014-Jul-15 18:33N 38°22' W 123°17'4 3.9
2014-Jul-15 17:33N 38°25' W 123°21'2 1.6
2014-Jul-15 16:31N 38°23' W 123°20'6 6.2
2014-Jul-15 15:33N 38°18' W 123°17'5 5.5
2014-Jul-15 14:33N 38°13' W 123°14'2 2.5
2014-Jul-15 13:33N 38°15' W 123°16'5 5.1
2014-Jul-15 12:33N 38°16' W 123°10'6 5.6
2014-Jul-15 11:33N 38°18' W 123°03'0 0.4
2014-Jul-15 10:29N 38°18' W 123°02'0 0.0
2014-Jul-15 09:29N 38°18' W 123°02'0 0.0
2014-Jul-15 08:29N 38°18' W 123°02'0 0.0
2014-Jul-15 07:29N 38°18' W 123°02'0 0.0
2014-Jul-15 06:29N 38°18' W 123°02'0 0.0
2014-Jul-15 05:29N 38°18' W 123°02'0 0.0
2014-Jul-15 04:29N 38°18' W 123°02'0 0.0
2014-Jul-15 03:29N 38°18' W 123°02'0 0.0
2014-Jul-15 02:29N 38°18' W 123°02'0 0.0
2014-Jul-15 01:23N 38°18' W 123°02'0 0.0
2014-Jul-15 00:29N 38°18' W 123°02'0 0.0
2014-Jul-14 23:23N 38°18' W 123°02'0 0.0
2014-Jul-14 22:29N 38°18' W 123°02'0 0.0
2014-Jul-14 21:29N 38°18' W 123°02'0 0.0
2014-Jul-14 20:29N 38°18' W 123°02'0 0.0
2014-Jul-14 19:29N 38°18' W 123°02'0 0.0
2014-Jul-14 18:29N 38°18' W 123°02'0 0.0
2014-Jul-14 17:29N 38°18' W 123°02'0 0.0
2014-Jul-14 16:29N 38°18' W 123°02'0 0.0
2014-Jul-14 15:31N 38°18' W 123°02'0 0.0
2014-Jul-14 14:31N 38°18' W 123°02'0 0.1
2014-Jul-14 13:31N 38°18' W 123°02'0 0.0
2014-Jul-14 12:31N 38°18' W 123°02'0 0.0
2014-Jul-14 11:31N 38°18' W 123°02'0 0.0
2014-Jul-14 10:31N 38°18' W 123°02'0 0.0
2014-Jul-14 09:31N 38°18' W 123°02'0 0.0
2014-Jul-14 08:31N 38°18' W 123°02'0 0.0
2014-Jul-14 07:31N 38°18' W 123°02'0 0.0
2014-Jul-14 06:31N 38°18' W 123°02'0 0.0
2014-Jul-14 05:31N 38°18' W 123°02'0 0.0
2014-Jul-14 04:31N 38°18' W 123°02'0 0.0
2014-Jul-14 03:31N 38°18' W 123°02'0 0.0
2014-Jul-14 02:31N 38°18' W 123°02'0 0.0
2014-Jul-14 01:31N 38°18' W 123°02'0 0.0
2014-Jul-14 00:25N 38°18' W 123°02'0 0.0
2014-Jul-13 23:31N 38°18' W 123°02'0 0.0
2014-Jul-13 22:31N 38°18' W 123°02'0 0.0
2014-Jul-13 21:31N 38°18' W 123°02'0 0.0
2014-Jul-13 20:31N 38°18' W 123°02'0 0.0
2014-Jul-13 19:31N 38°18' W 123°02'0 0.0
2014-Jul-13 18:31N 38°18' W 123°02'0 0.0
2014-Jul-13 17:31N 38°18' W 123°02'0 0.0
2014-Jul-13 16:31N 38°18' W 123°02'0 0.0
2014-Jul-13 15:31N 38°18' W 123°02'0 0.0
2014-Jul-13 14:31N 38°18' W 123°02'0 0.0
2014-Jul-13 13:31N 38°18' W 123°02'0 0.0
2014-Jul-13 12:31N 38°18' W 123°02'0 0.0
2014-Jul-13 11:25N 38°18' W 123°02'0 0.0
2014-Jul-13 10:31N 38°18' W 123°02'0 0.0
2014-Jul-13 09:31N 38°18' W 123°02'0 0.0
2014-Jul-13 08:31N 38°18' W 123°02'0 0.0
2014-Jul-13 07:31N 38°18' W 123°02'0 0.0
2014-Jul-13 06:31N 38°18' W 123°02'0 0.0
2014-Jul-13 05:30N 38°18' W 123°02'0 0.0
2014-Jul-13 04:30N 38°18' W 123°02'0 0.0
2014-Jul-13 03:30N 38°18' W 123°02'0 0.0
2014-Jul-13 02:30N 38°18' W 123°02'0 0.0
2014-Jul-13 01:30N 38°18' W 123°02'0 0.0
2014-Jul-13 00:30N 38°18' W 123°02'2 1.9
2014-Jul-12 23:32N 38°20' W 123°03'2 1.6
2014-Jul-12 22:33N 38°18' W 123°03'5 5.2
2014-Jul-12 21:33N 38°13' W 123°01'6 6.0
2014-Jul-12 20:33N 38°07' W 123°01'6 5.8
2014-Jul-12 19:33N 38°02' W 123°02'7 6.6
2014-Jul-12 18:33N 37°56' W 122°59'  
Track history (hours):
 
Tides and Currents Weather Stations Pressure Air Temp Water Temp Dewpoint Dewpoint Depression Visibility Wind Speed Wind Dir Waves Ship Positions

Greybeard

More information available from US FCC via Universal Licensing System and Coast Guard Vessel Documentation Center.

Last reported at 2014-Jul-22 17:13 UTC. Time now 2014-Jul-26 09:12 UTC.
Position N 36°57' W 122°15'.

Length 10 m.

Type: Fishing. MMSI: 367458170.

Date/timePositionNaut miles runAvg speedWind from/ knotsBaromVisibWave heightAir tempDewpointWater temp
2014-Jul-22 17:13N 36°57' W 122°15'0 0.4
2014-Jul-22 16:27N 36°57' W 122°16'3 2.9
2014-Jul-22 15:33N 36°55' W 122°13'3 2.9
2014-Jul-22 14:30N 36°54' W 122°10'  
2014-Jul-17 12:33N 36°56' W 122°06'6 4.6
2014-Jul-17 11:14N 36°58' W 122°13'4 4.5
2014-Jul-17 10:19N 37°01' W 122°17'4 4.9
2014-Jul-17 09:32N 37°05' W 122°19'1 1.0
2014-Jul-17 08:27N 37°06' W 122°19'0 0.0
2014-Jul-17 07:33N 37°06' W 122°19'0 0.0
2014-Jul-17 06:27N 37°06' W 122°19'0 0.0
2014-Jul-17 05:27N 37°06' W 122°19'0 0.0
2014-Jul-17 04:27N 37°06' W 122°19'0 0.0
2014-Jul-17 03:33N 37°06' W 122°19'0 0.0
2014-Jul-17 02:15N 37°06' W 122°19'0 0.0
2014-Jul-17 00:21N 37°06' W 122°19'0 0.0
2014-Jul-16 18:21N 37°06' W 122°19'2 1.4
2014-Jul-16 17:15N 37°06' W 122°21'3 3.9
2014-Jul-16 16:28N 37°08' W 122°24'3 2.7
2014-Jul-16 15:28N 37°10' W 122°26'11 4.6
2014-Jul-16 13:06N 37°20' W 122°32'7 4.3
2014-Jul-16 11:33N 37°26' W 122°35'26 4.3
2014-Jul-16 05:25N 37°47' W 122°55'4 4.6
2014-Jul-16 04:32N 37°51' W 122°58'4 4.5
2014-Jul-16 03:33N 37°54' W 123°01'4 4.2
2014-Jul-16 02:33N 37°58' W 123°04'2 2.1
2014-Jul-16 01:33N 37°59' W 123°06'3 3.2
2014-Jul-16 00:33N 38°02' W 123°07'3 3.3
2014-Jul-15 23:32N 38°05' W 123°09'3 3.0
2014-Jul-15 22:29N 38°08' W 123°10'3 3.5
2014-Jul-15 21:33N 38°11' W 123°12'4 3.7
2014-Jul-15 20:33N 38°15' W 123°13'4 4.1
2014-Jul-15 19:33N 38°19' W 123°15'4 3.9
2014-Jul-15 18:33N 38°22' W 123°17'4 3.9
2014-Jul-15 17:33N 38°25' W 123°21'2 1.6
2014-Jul-15 16:31N 38°23' W 123°20'6 6.2
2014-Jul-15 15:33N 38°18' W 123°17'5 5.5
2014-Jul-15 14:33N 38°13' W 123°14'2 2.5
2014-Jul-15 13:33N 38°15' W 123°16'5 5.1
2014-Jul-15 12:33N 38°16' W 123°10'6 5.6
2014-Jul-15 11:33N 38°18' W 123°03'0 0.4
2014-Jul-15 10:29N 38°18' W 123°02'0 0.0
2014-Jul-15 09:29N 38°18' W 123°02'0 0.0
2014-Jul-15 08:29N 38°18' W 123°02'0 0.0
2014-Jul-15 07:29N 38°18' W 123°02'0 0.0
2014-Jul-15 06:29N 38°18' W 123°02'0 0.0
2014-Jul-15 05:29N 38°18' W 123°02'0 0.0
2014-Jul-15 04:29N 38°18' W 123°02'0 0.0
2014-Jul-15 03:29N 38°18' W 123°02'0 0.0
2014-Jul-15 02:29N 38°18' W 123°02'0 0.0
2014-Jul-15 01:23N 38°18' W 123°02'0 0.0
2014-Jul-15 00:29N 38°18' W 123°02'0 0.0
2014-Jul-14 23:23N 38°18' W 123°02'0 0.0
2014-Jul-14 22:29N 38°18' W 123°02'0 0.0
2014-Jul-14 21:29N 38°18' W 123°02'0 0.0
2014-Jul-14 20:29N 38°18' W 123°02'0 0.0
2014-Jul-14 19:29N 38°18' W 123°02'0 0.0
2014-Jul-14 18:29N 38°18' W 123°02'0 0.0
2014-Jul-14 17:29N 38°18' W 123°02'0 0.0
2014-Jul-14 16:29N 38°18' W 123°02'0 0.0
2014-Jul-14 15:31N 38°18' W 123°02'0 0.0
2014-Jul-14 14:31N 38°18' W 123°02'0 0.1
2014-Jul-14 13:31N 38°18' W 123°02'0 0.0
2014-Jul-14 12:31N 38°18' W 123°02'0 0.0
2014-Jul-14 11:31N 38°18' W 123°02'0 0.0
2014-Jul-14 10:31N 38°18' W 123°02'0 0.0
2014-Jul-14 09:31N 38°18' W 123°02'0 0.0
2014-Jul-14 08:31N 38°18' W 123°02'0 0.0
2014-Jul-14 07:31N 38°18' W 123°02'0 0.0
2014-Jul-14 06:31N 38°18' W 123°02'0 0.0
2014-Jul-14 05:31N 38°18' W 123°02'0 0.0
2014-Jul-14 04:31N 38°18' W 123°02'0 0.0
2014-Jul-14 03:31N 38°18' W 123°02'0 0.0
2014-Jul-14 02:31N 38°18' W 123°02'0 0.0
2014-Jul-14 01:31N 38°18' W 123°02'0 0.0
2014-Jul-14 00:25N 38°18' W 123°02'0 0.0
2014-Jul-13 23:31N 38°18' W 123°02'0 0.0
2014-Jul-13 22:31N 38°18' W 123°02'0 0.0
2014-Jul-13 21:31N 38°18' W 123°02'0 0.0
2014-Jul-13 20:31N 38°18' W 123°02'0 0.0
2014-Jul-13 19:31N 38°18' W 123°02'0 0.0
2014-Jul-13 18:31N 38°18' W 123°02'0 0.0
2014-Jul-13 17:31N 38°18' W 123°02'0 0.0
2014-Jul-13 16:31N 38°18' W 123°02'0 0.0
2014-Jul-13 15:31N 38°18' W 123°02'0 0.0
2014-Jul-13 14:31N 38°18' W 123°02'0 0.0
2014-Jul-13 13:31N 38°18' W 123°02'0 0.0
2014-Jul-13 12:31N 38°18' W 123°02'0 0.0
2014-Jul-13 11:25N 38°18' W 123°02'0 0.0
2014-Jul-13 10:31N 38°18' W 123°02'0 0.0
2014-Jul-13 09:31N 38°18' W 123°02'0 0.0
2014-Jul-13 08:31N 38°18' W 123°02'0 0.0
2014-Jul-13 07:31N 38°18' W 123°02'0 0.0
2014-Jul-13 06:31N 38°18' W 123°02'0 0.0
2014-Jul-13 05:30N 38°18' W 123°02'0 0.0
2014-Jul-13 04:30N 38°18' W 123°02'0 0.0
2014-Jul-13 03:30N 38°18' W 123°02'0 0.0
2014-Jul-13 02:30N 38°18' W 123°02'0 0.0
2014-Jul-13 01:30N 38°18' W 123°02'0 0.0
2014-Jul-13 00:30N 38°18' W 123°02'2 1.9
2014-Jul-12 23:32N 38°20' W 123°03'2 1.6
2014-Jul-12 22:33N 38°18' W 123°03'5 5.2
2014-Jul-12 21:33N 38°13' W 123°01'6 6.0
2014-Jul-12 20:33N 38°07' W 123°01'6 5.8
2014-Jul-12 19:33N 38°02' W 123°02'7 6.6
2014-Jul-12 18:33N 37°56' W 122°59'  

Dump ship's entire track history